Tiempo atmosférico en la estación meteorológica de Abenójar, Ciudad Real (718 m.)

Fecha
DESCASC
Temp. máxima en grados centígrados (hora)
DESCASC
Temp. mínima en grados centígrados (hora)
DESCASC
Temp. media en grados centígrados
DESCASC
Racha de viento máxima en m/sg (hora)
DESCASC
Velocidad máxima media en intervalos de 10 minutos(hora)
DESCASC
Precipitaciones diarias en mm
DESCASC
Precipitaciones de 00:00 a 06:00 en mm
DESCASC
Precipitaciones de 06:00 a 12:00 en mm
DESCASC
Precipitaciones de 12:00 a 18:00 en mm
DESCASC
Precipitaciones de 18:00 a 24:00 en mm
DESCASC
21-08-2017 -- (--) -- (--) -- -- (--) -- (--) -- 0 0 0 --
20-08-2017 37.5 (18:30) 21.3 (07:30) 29.4 10 (09:10) 6.94 (09:10) 0 0 0 0 0
19-08-2017 37.9 (16:50) 20.6 (07:30) 29.3 9.17 (16:20) 5.28 (16:20) 0 0 0 0 0
18-08-2017 37.3 (17:00) 20.3 (07:30) 28.8 10.83 (16:40) 5.28 (16:40) 0 0 0 0 0
17-08-2017 37.3 (17:10) 19.4 (00:00) 28.3 7.5 (16:00) 4.44 (20:20) 0 0 0 0 0
16-08-2017 34.5 (17:00) 17.1 (00:00) 25.8 10 (15:50) 5.83 (16:10) 0 0 0 0 0
15-08-2017 35.5 (16:00) 21 (00:00) 28.3 10 (17:00) 6.11 (17:00) 0 0 0 0 0
14-08-2017 36.4 (17:50) 20.2 (07:30) 28.3 6.94 (20:30) 3.89 (18:10) 0 0 0 0 0
13-08-2017 34.9 (16:50) 17.7 (00:00) 26.3 6.67 (08:30) 4.44 (07:00) 0 0 0 0 0
12-08-2017 33.3 (17:50) 15.6 (00:00) 24.4 10.83 (09:30) 7.78 (09:30) 0 0 0 0 0
11-08-2017 31.3 (18:00) 15.9 (00:00) 23.6 10.83 (09:20) 7.5 (07:00) 0 0 0 0 0
10-08-2017 29.2 (18:50) 14.1 (00:00) 21.7 13.61 (00:30) 7.78 (00:50) 0 0 0 0 0
09-08-2017 30 (17:30) 13.8 (00:00) 21.9 11.67 (17:30) 6.67 (16:10) 0 0 0 0 0
08-08-2017 30.4 (16:40) 15.8 (00:00) 23.1 10 (16:30) 6.11 (17:50) 0 0 0 0 0
07-08-2017 37.1 (17:10) 19.9 (00:00) 28.5 12.78 (16:20) 7.22 (16:20) 0 0 0 0 0
06-08-2017 37.2 (17:10) 18 (00:00) 27.6 10 (18:10) 5.83 (19:40) 0 0 0 0 0
05-08-2017 39.4 (17:00) 22.9 (00:00) 31.2 11.11 (19:30) 7.22 (19:20) 0 0 0 0 0
04-08-2017 39.3 (18:10) 21.3 (00:00) 30.3 7.78 (16:00) 3.61 (20:00) 0 0 0 0 0
03-08-2017 37 (18:20) 18.2 (00:00) 27.6 8.61 (19:30) 5.56 (19:20) 0 0 0 0 0
02-08-2017 34.8 (17:40) 16.3 (00:00) 25.5 7.22 (16:40) 4.17 (21:10) 0 0 0 0 0
01-08-2017 32.2 (17:50) 19 (00:00) 25.6 9.17 (16:00) 5.28 (16:20) 0 0 0 0 0
31-07-2017 34 (16:20) 17.2 (00:00) 25.6 10.28 (17:20) 6.11 (18:00) 0 0 0 0 0
30-07-2017 37.6 (17:00) 20.6 (00:00) 29.1 12.22 (17:30) 6.67 (18:10) 0 0 0 0 0
29-07-2017 36.6 (17:40) 18.6 (00:00) 27.6 12.5 (15:10) 6.11 (13:50) 0 0 0 0 0
28-07-2017 37.6 (17:20) 19.5 (00:00) 28.5 10.28 (16:40) 6.11 (19:00) 0 0 0 0 0
27-07-2017 37.1 (18:30) 19.9 (00:00) 28.5 12.78 (14:30) 5.83 (17:10) 0 0 0 0 0
26-07-2017 35.2 (17:50) 18.6 (00:00) 26.9 8.06 (08:20) 5.56 (05:10) 0 0 0 0 0
25-07-2017 34.6 (17:50) 20.4 (00:00) 27.5 10.56 (10:00) 6.67 (06:20) 0 0 0 0 0
24-07-2017 34.5 (18:10) 17.7 (00:00) 26.1 9.17 (16:10) 5 (16:40) 0 0 0 0 0
23-07-2017 34.4 (17:10) 16.3 (00:00) 25.4 10.56 (17:30) 5.56 (18:20) 0 0 0 0 0

Gráficas

Temp. máximas Temp. mínimas Temp. medias Precipitaciones Rachas de viento máximas Velocidades máximas media en intervalos de 10 minutos

Datos horarios

Fecha y hora oficial Temperatura (ºC) Velocidad del viento (km/h) Dirección del viento Racha (km/h) Dirección de racha Precipitación (mm) Presión (hPa) Tendencia (hPa) Humedad (%)
2017-08-21 23:00:00 29.2 3 Sudoeste 9 Sudoeste 0 -- -- 32
2017-08-21 22:00:00 31.7 4 Sudoeste 13 Oeste 0 -- -- 30
2017-08-21 21:00:00 34.1 9 Oeste 21 Oeste 0 -- -- 26
2017-08-21 20:00:00 36.1 10 Oeste 21 Oeste 0 -- -- 25
2017-08-21 19:00:00 37.1 8 Sur 19 Sudoeste 0 -- -- 23
2017-08-21 18:00:00 37.5 10 Sudoeste 22 Sur 0 -- -- 23
2017-08-21 17:00:00 37.2 11 Sur 20 Sudeste 0 -- -- 23
2017-08-21 16:00:00 36.7 6 Sudoeste 18 Este 0 -- -- 26
2017-08-21 15:00:00 35.4 9 Sudeste 23 Este 0 -- -- 28
2017-08-21 14:00:00 34.1 4 Oeste 14 Oeste 0 -- -- 30
2017-08-21 13:00:00 32.4 5 Sudoeste 12 Sur 0 -- -- 35
2017-08-21 12:00:00 30 7 Sudeste 17 Sudeste 0 -- -- 39
2017-08-21 11:00:00 27.6 9 Este 23 Este 0 -- -- 49
2017-08-21 10:00:00 24.1 14 Este 23 Este 0 -- -- 60
2017-08-21 09:00:00 22.1 13 Este 22 Este 0 -- -- 67
2017-08-21 08:00:00 21.2 13 Este 23 Este 0 -- -- 70
2017-08-21 07:00:00 21.4 12 Nordeste 25 Este 0 -- -- 69
2017-08-21 06:00:00 22.6 16 Este 24 Este 0 -- -- 62
2017-08-21 05:00:00 24.2 12 Este 24 Nordeste 0 -- -- 51
2017-08-21 04:00:00 26.1 14 Nordeste 25 Nordeste 0 -- -- 43
2017-08-21 03:00:00 26.6 6 Este 12 Nordeste 0 -- -- 41
2017-08-21 02:00:00 27.5 9 Nordeste 16 Nordeste 0 -- -- 34
2017-08-21 01:00:00 28.5 9 Este 14 Nordeste 0 -- -- 31
2017-08-21 00:00:00 29.8 5 Oeste 23 Este 0 -- -- 27
2017-08-20 23:00:00 30.5 14 Nordeste 19 Nordeste 0 -- -- 26
2017-08-20 22:00:00 31.7 12 Nordeste 15 Nordeste 0 -- -- 24
2017-08-20 21:00:00 34.1 8 Nordeste 13 Nordeste 0 -- -- 20
2017-08-20 20:00:00 36.7 6 Este 18 Este 0 -- -- 18
2017-08-20 19:00:00 36.9 7 Nordeste 24 Este 0 -- -- 19
2017-08-20 18:00:00 37.3 10 Nordeste 23 Nordeste 0 -- -- 19
2017-08-20 17:00:00 37.4 6 Sur 21 Este 0 -- -- 20
2017-08-20 16:00:00 36.2 10 Este 25 Nordeste 0 -- -- 25
2017-08-20 15:00:00 35.2 14 Este 29 Este 0 -- -- 30
2017-08-20 14:00:00 33.5 17 Este 31 Sudeste 0 -- -- 32
2017-08-20 13:00:00 31.5 19 Este 32 Nordeste 0 -- -- 37
2017-08-20 12:00:00 28.9 21 Nordeste 33 Este 0 -- -- 45
2017-08-20 11:00:00 26.6 20 Este 31 Nordeste 0 -- -- 52
2017-08-20 10:00:00 23.8 20 Este 36 Este 0 -- -- 62
2017-08-20 09:00:00 22.1 22 Este 34 Este 0 -- -- 67
2017-08-20 08:00:00 21.5 20 Este 30 Este 0 -- -- 65
2017-08-20 07:00:00 21.7 17 Este 30 Este 0 -- -- 59
2017-08-20 06:00:00 22.2 22 Este 34 Nordeste 0 -- -- 57
2017-08-20 05:00:00 23.3 22 Este 32 Nordeste 0 -- -- 55
2017-08-20 04:00:00 25 23 Este 32 Este 0 -- -- 51
2017-08-20 03:00:00 26.9 19 Este 29 Nordeste 0 -- -- 46
2017-08-20 02:00:00 26.1 9 Nordeste 14 Este 0 -- -- 25
2017-08-20 01:00:00 25.8 3 Nordeste 9 Nordeste 0 -- -- 23
2017-08-20 00:00:00 28.2 5 Este 13 Norte 0 -- -- 21
2017-08-19 23:00:00 31.3 10 Norte 19 Noroeste 0 -- -- 18
2017-08-19 22:00:00 32.2 13 Noroeste 23 Noroeste 0 -- -- 19
2017-08-19 21:00:00 34.1 15 Noroeste 25 Noroeste 0 -- -- 16
2017-08-19 20:00:00 35.5 16 Noroeste 25 Noroeste 0 -- -- 17
2017-08-19 19:00:00 36.7 15 Noroeste 30 Oeste 0 -- -- 16
2017-08-19 18:00:00 37.4 11 Oeste 30 Oeste 0 -- -- 17
2017-08-19 17:00:00 37.9 12 Oeste 33 Oeste 0 -- -- 16
2017-08-19 16:00:00 37.6 13 Oeste 28 Sudoeste 0 -- -- 16
2017-08-19 15:00:00 36.4 6 Oeste 24 Noroeste 0 -- -- 18
2017-08-19 14:00:00 35.5 5 Sudoeste 26 Oeste 0 -- -- 18
2017-08-19 13:00:00 34.4 5 Sudoeste 14 Este 0 -- -- 18
2017-08-19 12:00:00 32.5 10 Sudeste 18 Nordeste 0 -- -- 21
2017-08-19 11:00:00 30 10 Nordeste 15 Nordeste 0 -- -- 25
2017-08-19 10:00:00 28.7 4 Nordeste 8 Sudeste 0 -- -- 28
2017-08-19 09:00:00 24.5 0 Calma 6 Nordeste 0 -- -- 39
2017-08-19 08:00:00 21.1 5 Nordeste 8 Nordeste 0 -- -- 43
2017-08-19 07:00:00 21.7 3 Nordeste 5 Nordeste 0 -- -- 41
2017-08-19 06:00:00 22.5 4 Norte 6 Nordeste 0 -- -- 39
2017-08-19 05:00:00 22.5 2 Nordeste 4 Nordeste 0 -- -- 39
2017-08-19 04:00:00 23.3 0 Calma 7 Noroeste 0 -- -- 38
2017-08-19 03:00:00 24.8 6 Noroeste 8 Noroeste 0 -- -- 35
2017-08-19 02:00:00 24.7 4 Noroeste 6 Oeste 0 -- -- 35
2017-08-19 01:00:00 25.7 0 Calma 4 Noroeste 0 -- -- 33
2017-08-19 00:00:00 27.7 4 Noroeste 8 Norte 0 -- -- 30
2017-08-18 23:00:00 29.6 7 Noroeste 13 Noroeste 0 -- -- 24
2017-08-18 22:00:00 30.5 6 Noroeste 13 Noroeste 0 -- -- 23
2017-08-18 21:00:00 33.4 12 Noroeste 24 Noroeste 0 -- -- 21
2017-08-18 20:00:00 35.5 14 Noroeste 26 Oeste 0 -- -- 20
2017-08-18 19:00:00 36.4 14 Noroeste 32 Noroeste 0 -- -- 18
2017-08-18 18:00:00 37 15 Oeste 34 Sudoeste 0 -- -- 18
2017-08-18 17:00:00 37.3 15 Oeste 39 Oeste 0 -- -- 18
2017-08-18 16:00:00 36.8 15 Oeste 35 Oeste 0 -- -- 19
2017-08-18 15:00:00 36.2 14 Oeste 28 Oeste 0 -- -- 19
2017-08-18 14:00:00 36 11 Oeste 31 Oeste 0 -- -- 20
2017-08-18 13:00:00 34.4 9 Oeste 23 Oeste 0 -- -- 22
2017-08-18 12:00:00 32.2 9 Oeste 15 Oeste 0 -- -- 23
2017-08-18 11:00:00 29.6 6 Oeste 14 Oeste 0 -- -- 27
2017-08-18 10:00:00 27.7 8 Oeste 12 Oeste 0 -- -- 30
2017-08-18 09:00:00 25 5 Oeste 9 Noroeste 0 -- -- 32
2017-08-18 08:00:00 20.7 3 Noroeste 5 Oeste 0 -- -- 40
2017-08-18 07:00:00 20.6 0 Calma 3 Nordeste 0 -- -- 40
2017-08-18 06:00:00 20.9 0 Calma 3 Sudeste 0 -- -- 37
2017-08-18 05:00:00 21.3 0 Calma 2 Sur 0 -- -- 36
2017-08-18 04:00:00 22.1 0 Calma 5 Oeste 0 -- -- 34
2017-08-18 03:00:00 22.5 0 Calma 3 Noroeste 0 -- -- 33
2017-08-18 02:00:00 23.4 0 Calma 2 Nordeste 0 -- -- 32
2017-08-18 01:00:00 25 3 Noroeste 6 Noroeste 0 -- -- 29
2017-08-18 00:00:00 27.5 4 Norte 8 Noroeste 0 -- -- 25
2017-08-17 23:00:00 29.4 6 Noroeste 13 Noroeste 0 -- -- 22
2017-08-17 22:00:00 30.3 8 Noroeste 13 Noroeste 0 -- -- 21
2017-08-17 21:00:00 33.1 10 Noroeste 26 Oeste 0 -- -- 18
2017-08-17 20:00:00 35.6 15 Oeste 23 Oeste 0 -- -- 16
2017-08-17 19:00:00 37.1 9 Sudoeste 25 Oeste 0 -- -- 15
2017-08-17 18:00:00 37 7 Noroeste 27 Oeste 0 -- -- 16
2017-08-17 17:00:00 37.2 9 Sudoeste 23 Sudoeste 0 -- -- 14
2017-08-17 16:00:00 36.5 13 Oeste 27 Oeste 0 -- -- 15
2017-08-17 15:00:00 35.8 9 Oeste 23 Oeste 0 -- -- 16
2017-08-17 14:00:00 34.8 6 Oeste 22 Sudoeste 0 -- -- 15
2017-08-17 13:00:00 33.5 6 Sudoeste 23 Sudoeste 0 -- -- 17
2017-08-17 12:00:00 31.6 5 Oeste 13 Oeste 0 -- -- 18
2017-08-17 11:00:00 29.8 2 Sur 8 Este 0 -- -- 22
2017-08-17 10:00:00 26.7 2 Oeste 6 Nordeste 0 -- -- 26
2017-08-17 09:00:00 24.1 4 Nordeste 8 Nordeste 0 -- -- 30
2017-08-17 08:00:00 20.1 5 Nordeste 8 Nordeste 0 -- -- 36
2017-08-17 07:00:00 19.4 3 Nordeste 6 Nordeste 0 -- -- 37
2017-08-17 06:00:00 19.7 4 Nordeste 5 Nordeste 0 -- -- 36
2017-08-17 05:00:00 20.1 0 Calma 6 Nordeste 0 -- -- 36
2017-08-17 04:00:00 20.5 2 Este 5 Nordeste 0 -- -- 34
2017-08-17 03:00:00 20.8 2 Nordeste 4 Nordeste 0 -- -- 34
2017-08-17 02:00:00 21.5 2 Este 3 Este 0 -- -- 33
2017-08-17 01:00:00 23.9 0 Calma 6 Noroeste 0 -- -- 28
2017-08-17 00:00:00 24 4 Noroeste 6 Oeste 0 -- -- 29
2017-08-16 23:00:00 25.9 0 Calma 9 Oeste 0 -- -- 26
2017-08-16 22:00:00 28.3 7 Oeste 10 Oeste 0 -- -- 20
2017-08-16 21:00:00 31.4 10 Oeste 22 Oeste 0 -- -- 15
2017-08-16 20:00:00 33 15 Oeste 30 Noroeste 0 -- -- 16
2017-08-16 19:00:00 34.2 12 Oeste 28 Oeste 0 -- -- 13
2017-08-16 18:00:00 34.5 13 Sudoeste 28 Oeste 0 -- -- 10
2017-08-16 17:00:00 34.5 17 Oeste 31 Oeste 0 -- -- 10
2017-08-16 16:00:00 34.2 17 Oeste 36 Oeste 0 -- -- 10
2017-08-16 15:00:00 33.8 19 Oeste 31 Oeste 0 -- -- 11
2017-08-16 14:00:00 33.1 13 Sudoeste 32 Oeste 0 -- -- 16
2017-08-16 13:00:00 30.9 7 Oeste 20 Oeste 0 -- -- 19
2017-08-16 12:00:00 28.9 6 Oeste 13 Oeste 0 -- -- 21
2017-08-16 11:00:00 26.3 5 Oeste 12 Oeste 0 -- -- 28
2017-08-16 10:00:00 24.2 3 Oeste 6 Oeste 0 -- -- 31
2017-08-16 09:00:00 20.9 0 Calma 2 Oeste 0 -- -- 35
2017-08-16 08:00:00 17.2 0 Calma 2 Nordeste 0 -- -- 43
2017-08-16 07:00:00 17.8 2 Nordeste 4 Nordeste 0 -- -- 40
2017-08-16 06:00:00 18.1 0 Calma 3 Oeste 0 -- -- 39
2017-08-16 05:00:00 19.1 0 Calma 4 Oeste 0 -- -- 37
2017-08-16 04:00:00 20.3 2 Oeste 10 Oeste 0 -- -- 34
2017-08-16 03:00:00 21.1 5 Oeste 8 Noroeste 0 -- -- 33
2017-08-16 02:00:00 23.4 8 Oeste 13 Noroeste 0 -- -- 30
2017-08-16 01:00:00 24.3 4 Noroeste 10 Noroeste 0 -- -- 30
2017-08-16 00:00:00 25.3 6 Noroeste 13 Noroeste 0 -- -- 28
2017-08-15 23:00:00 26.6 6 Noroeste 10 Noroeste 0 -- -- 25
2017-08-15 22:00:00 28.4 7 Noroeste 13 Oeste 0 -- -- 21
2017-08-15 21:00:00 31.1 12 Oeste 25 Oeste 0 -- -- 16
2017-08-15 20:00:00 33.2 17 Oeste 32 Oeste 0 -- -- 17
2017-08-15 19:00:00 34.1 17 Oeste 32 Noroeste 0 -- -- 16
2017-08-15 18:00:00 34.3 17 Oeste 32 Oeste 0 -- -- 19
2017-08-15 17:00:00 35 22 Oeste 36 Oeste 0 -- -- 19
2017-08-15 16:00:00 35.5 14 Oeste 34 Oeste 0 -- -- 20
2017-08-15 15:00:00 34.6 17 Oeste 29 Oeste 0 -- -- 21
2017-08-15 14:00:00 34 10 Sudoeste 26 Oeste 0 -- -- 24
2017-08-15 13:00:00 32.5 9 Oeste 18 Oeste 0 -- -- 25
2017-08-15 12:00:00 29.8 10 Oeste 18 Oeste 0 -- -- 29
2017-08-15 11:00:00 27.8 8 Oeste 13 Oeste 0 -- -- 33
2017-08-15 10:00:00 26.1 3 Sudoeste 8 Oeste 0 -- -- 39
2017-08-15 09:00:00 23.6 4 Oeste 7 Oeste 0 -- -- 46
2017-08-15 08:00:00 21.4 4 Oeste 9 Noroeste 0 -- -- 52
2017-08-15 07:00:00 21 3 Oeste 8 Oeste 0 -- -- 52
2017-08-15 06:00:00 21.3 2 Oeste 5 Sur 0 -- -- 50
2017-08-15 05:00:00 22.5 2 Sur 6 Sudeste 0 -- -- 47
2017-08-15 04:00:00 23.5 4 Sudeste 10 Sur 0 -- -- 44
2017-08-15 03:00:00 24.7 4 Sudoeste 8 Sur 0 -- -- 41
2017-08-15 02:00:00 25.9 4 Oeste 13 Oeste 0 -- -- 39
2017-08-15 01:00:00 25.4 6 Noroeste 9 Noroeste 0 -- -- 40
2017-08-15 00:00:00 26.4 0 Calma 8 Sudoeste 0 -- -- 38
2017-08-14 23:00:00 28 4 Sudoeste 15 Sudoeste 0 -- -- 33
2017-08-14 22:00:00 30.2 8 Sudoeste 15 Sudoeste 0 -- -- 30
2017-08-14 21:00:00 32.5 11 Sudoeste 25 Sudoeste 0 -- -- 27
2017-08-14 20:00:00 34.7 13 Sudoeste 23 Sudoeste 0 -- -- 24
2017-08-14 19:00:00 35.5 7 Sudoeste 24 Sudeste 0 -- -- 22
2017-08-14 18:00:00 36 10 Sudeste 24 Sudeste 0 -- -- 22
2017-08-14 17:00:00 35.9 9 Sudeste 21 Sudeste 0 -- -- 22
2017-08-14 16:00:00 34.2 10 Norte 18 Sudoeste 0 -- -- 24
2017-08-14 15:00:00 34.1 8 Sudeste 18 Sur 0 -- -- 24
2017-08-14 14:00:00 33 13 Sudeste 23 Sudeste 0 -- -- 25
2017-08-14 13:00:00 31.4 8 Sudeste 19 Este 0 -- -- 27
2017-08-14 12:00:00 29.9 9 Sudeste 17 Sudeste 0 -- -- 29
2017-08-14 11:00:00 27.6 3 Norte 12 Nordeste 0 -- -- 35
2017-08-14 10:00:00 24.5 8 Nordeste 14 Nordeste 0 -- -- 42
2017-08-14 09:00:00 21.4 12 Nordeste 17 Nordeste 0 -- -- 48
2017-08-14 08:00:00 20.3 6 Nordeste 12 Nordeste 0 -- -- 50
2017-08-14 07:00:00 20.5 7 Nordeste 12 Nordeste 0 -- -- 48
2017-08-14 06:00:00 21.2 7 Nordeste 11 Nordeste 0 -- -- 44
2017-08-14 05:00:00 21.4 4 Nordeste 13 Nordeste 0 -- -- 43
2017-08-14 04:00:00 22.5 5 Nordeste 9 Nordeste 0 -- -- 37
2017-08-14 03:00:00 23.1 0 Calma 12 Sudeste 0 -- -- 35
2017-08-14 02:00:00 26.2 9 Sudeste 15 Sudeste 0 -- -- 29
2017-08-14 01:00:00 27.2 9 Este 14 Este 0 -- -- 27
2017-08-14 00:00:00 27.2 5 Nordeste 13 Noroeste 0 -- -- 23
2017-08-13 23:00:00 29 9 Nordeste 14 Nordeste 0 -- -- 20
2017-08-13 22:00:00 29.8 10 Nordeste 14 Nordeste 0 -- -- 20
2017-08-13 21:00:00 32.2 6 Nordeste 14 Este 0 -- -- 18
2017-08-13 20:00:00 34 6 Este 16 Este 0 -- -- 17
2017-08-13 19:00:00 34.6 10 Este 20 Este 0 -- -- 17
2017-08-13 18:00:00 34.5 6 Nordeste 23 Oeste 0 -- -- 17
2017-08-13 17:00:00 34.7 10 Oeste 18 Oeste 0 -- -- 17
2017-08-13 16:00:00 34.1 14 Norte 24 Norte 0 -- -- 18
2017-08-13 15:00:00 33.7 11 Oeste 23 Este 0 -- -- 18
2017-08-13 14:00:00 32.1 5 Oeste 19 Sudeste 0 -- -- 22
2017-08-13 13:00:00 30.7 7 Este 15 Este 0 -- -- 27
2017-08-13 12:00:00 28 5 Nordeste 14 Este 0 -- -- 33
2017-08-13 11:00:00 25.3 9 Nordeste 14 Nordeste 0 -- -- 38
2017-08-13 10:00:00 22.6 9 Nordeste 21 Nordeste 0 -- -- 46
2017-08-13 09:00:00 19.7 14 Nordeste 24 Nordeste 0 -- -- 53
2017-08-13 08:00:00 17.8 14 Nordeste 20 Nordeste 0 -- -- 55
2017-08-13 07:00:00 18.6 16 Nordeste 21 Nordeste 0 -- -- 45
2017-08-13 06:00:00 20.8 8 Nordeste 21 Nordeste 0 -- -- 35
2017-08-13 05:00:00 21 5 Nordeste 9 Nordeste 0 -- -- 31
2017-08-13 04:00:00 22.3 5 Este 12 Este 0 -- -- 31
2017-08-13 03:00:00 22.1 8 Este 10 Nordeste 0 -- -- 31
2017-08-13 02:00:00 23 6 Este 18 Nordeste 0 -- -- 24
2017-08-13 01:00:00 25.1 10 Nordeste 22 Este 0 -- -- 21
2017-08-13 00:00:00 26.1 14 Nordeste 21 Nordeste 0 -- -- 20
2017-08-12 23:00:00 27 14 Nordeste 19 Este 0 -- -- 21
2017-08-12 22:00:00 28.3 12 Este 17 Este 0 -- -- 20
2017-08-12 21:00:00 30.4 9 Este 19 Este 0 -- -- 19
2017-08-12 20:00:00 31.9 14 Este 22 Este 0 -- -- 17
2017-08-12 19:00:00 32.6 7 Nordeste 23 Este 0 -- -- 16
2017-08-12 18:00:00 32.9 5 Nordeste 19 Sur 0 -- -- 15
2017-08-12 17:00:00 32.6 7 Nordeste 23 Norte 0 -- -- 15
2017-08-12 16:00:00 32.5 7 Sur 20 Nordeste 0 -- -- 15
2017-08-12 15:00:00 31.3 9 Nordeste 24 Norte 0 -- -- 16
2017-08-12 14:00:00 30 11 Nordeste 25 Este 0 -- -- 17
2017-08-12 13:00:00 28.1 13 Nordeste 23 Nordeste 0 -- -- 31
2017-08-12 12:00:00 25.8 13 Este 27 Este 0 -- -- 42
2017-08-12 11:00:00 22.6 15 Este 24 Este 0 -- -- 54
2017-08-12 10:00:00 20 16 Este 39 Este 0 -- -- 61
2017-08-12 09:00:00 18 23 Nordeste 36 Este 0 -- -- 64
2017-08-12 08:00:00 15.9 22 Nordeste 33 Nordeste 0 -- -- 79
2017-08-12 07:00:00 15.9 24 Nordeste 32 Nordeste 0 -- -- 64
2017-08-12 06:00:00 17.3 19 Nordeste 29 Este 0 -- -- 50
2017-08-12 05:00:00 19.4 14 Este 28 Este 0 -- -- 23
2017-08-12 04:00:00 19.4 11 Nordeste 22 Este 0 -- -- 23
2017-08-12 03:00:00 20.2 7 Este 16 Nordeste 0 -- -- 21
2017-08-12 02:00:00 21.9 14 Nordeste 17 Nordeste 0 -- -- 18
2017-08-12 01:00:00 22 15 Nordeste 19 Nordeste 0 -- -- 18
2017-08-12 00:00:00 23 15 Nordeste 24 Este 0 -- -- 17
2017-08-11 23:00:00 25.5 17 Este 24 Este 0 -- -- 14
2017-08-11 22:00:00 26.2 10 Este 15 Este 0 -- -- 20
2017-08-11 21:00:00 28.3 8 Este 18 Este 0 -- -- 19
2017-08-11 20:00:00 30.1 10 Nordeste 17 Nordeste 0 -- -- 18
2017-08-11 19:00:00 30.7 12 Nordeste 19 Nordeste 0 -- -- 18
2017-08-11 18:00:00 31.3 9 Este 23 Este 0 -- -- 18
2017-08-11 17:00:00 30.6 6 Nordeste 27 Este 0 -- -- 18
2017-08-11 16:00:00 29.4 5 Sudeste 22 Norte 0 -- -- 19
2017-08-11 15:00:00 28.8 8 Sur 22 Nordeste 0 -- -- 20
2017-08-11 14:00:00 27.7 8 Nordeste 24 Nordeste 0 -- -- 26
2017-08-11 13:00:00 25.8 15 Nordeste 30 Este 0 -- -- 33
2017-08-11 12:00:00 24.3 19 Este 32 Nordeste 0 -- -- 42
2017-08-11 11:00:00 22 19 Este 33 Este 0 -- -- 45
2017-08-11 10:00:00 19.6 24 Este 39 Este 0 -- -- 50
2017-08-11 09:00:00 17.8 22 Este 35 Nordeste 0 -- -- 54
2017-08-11 08:00:00 15.9 23 Nordeste 35 Este 0 -- -- 59
2017-08-11 07:00:00 16.3 27 Este 36 Este 0 -- -- 54
2017-08-11 06:00:00 17.4 20 Este 28 Este 0 -- -- 36
2017-08-11 05:00:00 16.9 14 Nordeste 18 Este 0 -- -- 31
2017-08-11 04:00:00 17.8 12 Nordeste 14 Nordeste 0 -- -- 29
2017-08-11 03:00:00 18.8 12 Nordeste 17 Nordeste 0 -- -- 28
2017-08-11 02:00:00 19.7 14 Nordeste 18 Nordeste 0 -- -- 26
2017-08-11 01:00:00 20 14 Nordeste 17 Nordeste 0 -- -- 24
2017-08-11 00:00:00 21 13 Este 17 Nordeste 0 -- -- 20
2017-08-10 23:00:00 21.7 11 Nordeste 13 Nordeste 0 -- -- 17
2017-08-10 22:00:00 23 10 Nordeste 17 Este 0 -- -- 14
2017-08-10 21:00:00 26.4 13 Este 24 Este 0 -- -- 12
2017-08-10 20:00:00 28.1 10 Nordeste 23 Nordeste 0 -- -- 12
2017-08-10 19:00:00 28.9 7 Nordeste 21 Nordeste 0 -- -- 11
2017-08-10 18:00:00 28.9 8 Norte 33 Norte 0 -- -- 14
2017-08-10 17:00:00 28.2 11 Nordeste 23 Norte 0 -- -- 16
2017-08-10 16:00:00 26.9 11 Este 28 Este 0 -- -- 20
2017-08-10 15:00:00 25.7 12 Nordeste 32 Este 0 -- -- 23
2017-08-10 14:00:00 24.4 17 Este 31 Este 0 -- -- 27
2017-08-10 13:00:00 22.3 18 Nordeste 33 Nordeste 0 -- -- 32
2017-08-10 12:00:00 20.8 19 Este 38 Nordeste 0 -- -- 38
2017-08-10 11:00:00 19.2 23 Este 33 Este 0 -- -- 32
2017-08-10 10:00:00 17.6 16 Este 31 Este 0 -- -- 35
2017-08-10 09:00:00 15.8 19 Este 32 Este 0 -- -- 41
2017-08-10 08:00:00 14.1 18 Este 29 Este 0 -- -- 48
2017-08-10 07:00:00 14.4 19 Este 34 Este 0 -- -- 50
2017-08-10 06:00:00 15.2 21 Este 35 Nordeste 0 -- -- 48
2017-08-10 05:00:00 16.4 21 Este 31 Nordeste 0 -- -- 44
2017-08-10 04:00:00 -- -- -- -- -- -- -- -- --
2017-08-10 03:00:00 -- -- -- -- -- -- -- -- --
2017-08-10 02:00:00 -- -- -- -- -- -- -- -- --
2017-08-10 01:00:00 -- -- -- -- -- -- -- -- --
2017-08-10 00:00:00 -- -- -- -- -- -- -- -- --
2017-08-09 23:00:00 23.8 10 Norte 21 Noroeste 0 -- -- 24
2017-08-09 22:00:00 24.1 7 Noroeste 18 Oeste 0 -- -- 24
2017-08-09 21:00:00 26.7 13 Oeste 26 Noroeste 0 -- -- 22
2017-08-09 20:00:00 28.2 17 Oeste 32 Oeste 0 -- -- 20
2017-08-09 19:00:00 29.1 18 Oeste 33 Oeste 0 -- -- 16
2017-08-09 18:00:00 29.8 18 Oeste 42 Oeste 0 -- -- 17
2017-08-09 17:00:00 29.7 18 Oeste 40 Oeste 0 -- -- 17
2017-08-09 16:00:00 29.5 18 Oeste 39 Oeste 0 -- -- 19
2017-08-09 15:00:00 29 16 Oeste 35 Oeste 0 -- -- 19
2017-08-09 14:00:00 27.8 15 Oeste 34 Oeste 0 -- -- 20
2017-08-09 13:00:00 27.1 19 Oeste 31 Oeste 0 -- -- 22
2017-08-09 12:00:00 25.7 16 Oeste 30 Noroeste 0 -- -- 27
2017-08-09 11:00:00 22.8 9 Oeste 18 Oeste 0 -- -- 34
2017-08-09 10:00:00 20.3 8 Oeste 15 Oeste 0 -- -- 36
2017-08-09 09:00:00 18.3 8 Oeste 13 Oeste 0 -- -- 40
2017-08-09 08:00:00 14.3 4 Oeste 6 Oeste 0 -- -- 45
2017-08-09 07:00:00 14.4 4 Noroeste 5 Noroeste 0 -- -- 41
2017-08-09 06:00:00 14.9 3 Oeste 6 Oeste 0 -- -- 38
2017-08-09 05:00:00 15.6 0 Calma 3 Sudoeste 0 -- -- 37
2017-08-09 04:00:00 16.5 2 Norte 4 Noroeste 0 -- -- 34
2017-08-09 03:00:00 16.4 2 Noroeste 3 Oeste 0 -- -- 32
2017-08-09 02:00:00 17.1 0 Calma 3 Oeste 0 -- -- 28
2017-08-09 01:00:00 17.8 0 Calma 2 Norte 0 -- -- 26
2017-08-09 00:00:00 19.6 0 Calma 8 Oeste 0 -- -- 23
2017-08-08 23:00:00 21.2 4 Noroeste 6 Noroeste 0 -- -- 20
2017-08-08 22:00:00 24.9 5 Oeste 15 Oeste 0 -- -- 16
2017-08-08 21:00:00 27.9 11 Oeste 22 Oeste 0 -- -- 12
2017-08-08 20:00:00 29.3 13 Oeste 28 Oeste 0 -- -- 11
2017-08-08 19:00:00 29.8 18 Oeste 35 Oeste 0 -- -- 13
2017-08-08 18:00:00 30.3 18 Oeste 36 Oeste 0 -- -- 13
2017-08-08 17:00:00 30.2 20 Oeste 36 Oeste 0 -- -- 12
2017-08-08 16:00:00 29.8 18 Oeste 34 Oeste 0 -- -- 13
2017-08-08 15:00:00 29.5 19 Oeste 31 Oeste 0 -- -- 10
2017-08-08 14:00:00 28 16 Oeste 28 Noroeste 0 -- -- 19
2017-08-08 13:00:00 26.2 12 Oeste 24 Oeste 0 -- -- 26
2017-08-08 12:00:00 23.6 5 Norte 20 Oeste 0 -- -- 33
2017-08-08 11:00:00 21.4 7 Oeste 18 Noroeste 0 -- -- 40
2017-08-08 10:00:00 19.2 5 Sudoeste 17 Oeste 0 -- -- 47
2017-08-08 09:00:00 17.4 10 Oeste 20 Oeste 0 -- -- 50
2017-08-08 08:00:00 15.8 10 Oeste 17 Oeste 0 -- -- 51
2017-08-08 07:00:00 16.7 13 Oeste 20 Oeste 0 -- -- 45
2017-08-08 06:00:00 18.2 3 Oeste 14 Oeste 0 -- -- 39
2017-08-08 05:00:00 19.8 6 Oeste 16 Oeste 0 -- -- 34
2017-08-08 04:00:00 21.6 11 Oeste 25 Oeste 0 -- -- 29
2017-08-08 03:00:00 22.8 15 Oeste 23 Oeste 0 -- -- 26
2017-08-08 02:00:00 23.6 12 Oeste 20 Oeste 0 -- -- 23
2017-08-08 01:00:00 25.1 8 Oeste 22 Oeste 0 -- -- 20
2017-08-08 00:00:00 26.6 15 Oeste 25 Oeste 0 -- -- 18
2017-08-07 23:00:00 27.4 11 Oeste 21 Oeste 0 -- -- 12
2017-08-07 22:00:00 29.3 6 Sudoeste 29 Oeste 0 -- -- 11
2017-08-07 21:00:00 31.7 17 Oeste 33 Noroeste 0 -- -- 9
2017-08-07 20:00:00 34.6 23 Oeste 39 Oeste 0 -- -- 9
2017-08-07 19:00:00 36.1 22 Oeste 41 Oeste 0 -- -- 8
2017-08-07 18:00:00 36.8 23 Oeste 41 Oeste 0 -- -- 9
2017-08-07 17:00:00 37 22 Sudoeste 46 Oeste 0 -- -- 9
2017-08-07 16:00:00 36.5 19 Sudoeste 40 Oeste 0 -- -- 11
2017-08-07 15:00:00 35.7 21 Oeste 38 Oeste 0 -- -- 11
2017-08-07 14:00:00 34.6 15 Oeste 31 Sudoeste 0 -- -- 12
2017-08-07 13:00:00 33.1 16 Oeste 30 Oeste 0 -- -- 11
2017-08-07 12:00:00 31.3 12 Oeste 26 Oeste 0 -- -- 15
2017-08-07 11:00:00 29.2 10 Oeste 22 Oeste 0 -- -- 23
2017-08-07 10:00:00 26.2 10 Oeste 18 Oeste 0 -- -- 31
2017-08-07 09:00:00 23.4 0 Calma 5 Oeste 0 -- -- 26
2017-08-07 08:00:00 20.3 3 Noroeste 6 Noroeste 0 -- -- 34
2017-08-07 07:00:00 20.6 0 Calma 7 Sudeste 0 -- -- 28
2017-08-07 06:00:00 21.6 3 Noroeste 6 Oeste 0 -- -- 26
2017-08-07 05:00:00 22 0 Calma 6 Oeste 0 -- -- 23
2017-08-07 04:00:00 22.6 0 Calma 9 Oeste 0 -- -- 21
2017-08-07 03:00:00 23.6 6 Oeste 11 Oeste 0 -- -- 18
2017-08-07 02:00:00 22.2 3 Oeste 6 Sur 0 -- -- 21
2017-08-07 01:00:00 23.1 0 Calma 3 Oeste 0 -- -- 20
2017-08-07 00:00:00 24.6 0 Calma 3 Oeste 0 -- -- 18
2017-08-06 23:00:00 26.6 2 Noroeste 12 Noroeste 0 -- -- 16
2017-08-06 22:00:00 30 9 Noroeste 20 Noroeste 0 -- -- 16
2017-08-06 21:00:00 33.7 13 Noroeste 28 Noroeste 0 -- -- 17
2017-08-06 20:00:00 36 19 Oeste 34 Oeste 0 -- -- 15
2017-08-06 19:00:00 37.1 13 Oeste 36 Oeste 0 -- -- 12
2017-08-06 18:00:00 37.1 18 Oeste 32 Oeste 0 -- -- 11
2017-08-06 17:00:00 37 10 Oeste 36 Oeste 0 -- -- 11
2017-08-06 16:00:00 36.4 8 Sudoeste 32 Oeste 0 -- -- 12
2017-08-06 15:00:00 35.6 13 Sudoeste 31 Oeste 0 -- -- 14
2017-08-06 14:00:00 34.8 8 Sudoeste 22 Sudoeste 0 -- -- 15
2017-08-06 13:00:00 33.4 10 Sudoeste 23 Noroeste 0 -- -- 15
2017-08-06 12:00:00 31.1 8 Sudoeste 19 Oeste 0 -- -- 17
2017-08-06 11:00:00 28.6 9 Oeste 17 Oeste 0 -- -- 28
2017-08-06 10:00:00 25.7 8 Oeste 13 Oeste 0 -- -- 39
2017-08-06 09:00:00 23 6 Oeste 9 Oeste 0 -- -- 44
2017-08-06 08:00:00 18.8 6 Oeste 9 Noroeste 0 -- -- 49
2017-08-06 07:00:00 18.6 0 Calma 4 Sudoeste 0 -- -- 47
2017-08-06 06:00:00 19.9 0 Calma 4 Noroeste 0 -- -- 44
2017-08-06 05:00:00 20.9 2 Noroeste 4 Noroeste 0 -- -- 40
2017-08-06 04:00:00 23 0 Calma 8 Oeste 0 -- -- 35
2017-08-06 03:00:00 24.5 3 Sudoeste 14 Oeste 0 -- -- 33
2017-08-06 02:00:00 25 0 Calma 10 Oeste 0 -- -- 33
2017-08-06 01:00:00 27.8 6 Oeste 13 Oeste 0 -- -- 29
2017-08-06 00:00:00 28.1 9 Oeste 12 Noroeste 0 -- -- 27
2017-08-05 23:00:00 29.7 4 Oeste 12 Noroeste 0 -- -- 26
2017-08-05 22:00:00 32.2 9 Noroeste 23 Oeste 0 -- -- 23
2017-08-05 21:00:00 35 17 Oeste 38 Oeste 0 -- -- 19
2017-08-05 20:00:00 36.6 24 Oeste 40 Oeste 0 -- -- 19
2017-08-05 19:00:00 38 24 Oeste 39 Oeste 0 -- -- 19
2017-08-05 18:00:00 39.1 18 Oeste 37 Oeste 0 -- -- 18
2017-08-05 17:00:00 39.4 16 Sudoeste 29 Oeste 0 -- -- 18
2017-08-05 16:00:00 38.8 15 Sudoeste 35 Oeste 0 -- -- 18
2017-08-05 15:00:00 38.2 13 Oeste 34 Oeste 0 -- -- 20
2017-08-05 14:00:00 37.9 15 Sudoeste 39 Sudoeste 0 -- -- 21
2017-08-05 13:00:00 37.2 10 Oeste 22 Oeste 0 -- -- 20
2017-08-05 12:00:00 35.6 6 Sudoeste 14 Sudoeste 0 -- -- 24
2017-08-05 11:00:00 33.7 5 Sudoeste 12 Oeste 0 -- -- 24
2017-08-05 10:00:00 31.9 3 Sudoeste 6 Oeste 0 -- -- 27
2017-08-05 09:00:00 29.5 0 Calma 5 Nordeste 0 -- -- 31
2017-08-05 08:00:00 23.5 4 Norte 6 Norte 0 -- -- 41
2017-08-05 07:00:00 23.7 2 Norte 10 Oeste 0 -- -- 38
2017-08-05 06:00:00 25.7 3 Sudeste 10 Nordeste 0 -- -- 34
2017-08-05 05:00:00 26.8 5 Nordeste 14 Norte 0 -- -- 32
2017-08-05 04:00:00 27.8 9 Norte 17 Norte 0 -- -- 29
2017-08-05 03:00:00 30.1 12 Norte 15 Norte 0 -- -- 26
2017-08-05 02:00:00 29.7 12 Norte 15 Norte 0 -- -- 29
2017-08-05 01:00:00 29.1 6 Noroeste 9 Noroeste 0 -- -- 31
2017-08-05 00:00:00 29.8 6 Noroeste 9 Noroeste 0 -- -- 30
2017-08-04 23:00:00 30.9 4 Noroeste 9 Noroeste 0 -- -- 26
2017-08-04 22:00:00 33.9 6 Oeste 17 Oeste 0 -- -- 24
2017-08-04 21:00:00 36.9 12 Oeste 24 Oeste 0 -- -- 21
2017-08-04 20:00:00 38.3 13 Oeste 22 Oeste 0 -- -- 19
2017-08-04 19:00:00 39.2 11 Oeste 22 Sudoeste 0 -- -- 18
2017-08-04 18:00:00 39 8 Sudoeste 20 Sudoeste 0 -- -- 19
2017-08-04 17:00:00 38.9 5 Norte 23 Noroeste 0 -- -- 17
2017-08-04 16:00:00 37.8 9 Noroeste 28 Oeste 0 -- -- 18
2017-08-04 15:00:00 36.9 3 Sudoeste 22 Oeste 0 -- -- 19
2017-08-04 14:00:00 36.4 8 Sudoeste 18 Sudoeste 0 -- -- 21
2017-08-04 13:00:00 34.9 10 Noroeste 16 Oeste 0 -- -- 20
2017-08-04 12:00:00 33.2 5 Oeste 13 Sudeste 0 -- -- 26
2017-08-04 11:00:00 32.1 5 Sur 12 Este 0 -- -- 28
2017-08-04 10:00:00 29.4 4 Oeste 13 Sudeste 0 -- -- 27
2017-08-04 09:00:00 28 5 Este 8 Sudeste 0 -- -- 35
2017-08-04 08:00:00 21.8 5 Nordeste 8 Nordeste 0 -- -- 42
2017-08-04 07:00:00 21.3 4 Nordeste 7 Nordeste 0 -- -- 38
2017-08-04 06:00:00 21.8 3 Nordeste 6 Nordeste 0 -- -- 35
2017-08-04 05:00:00 21.6 4 Nordeste 5 Nordeste 0 -- -- 33
2017-08-04 04:00:00 22 2 Este 4 Nordeste 0 -- -- 33
2017-08-04 03:00:00 23.5 2 Norte 6 Norte 0 -- -- 30
2017-08-04 02:00:00 25.8 5 Norte 8 Norte 0 -- -- 27
2017-08-04 01:00:00 25.8 5 Noroeste 6 Noroeste 0 -- -- 23
2017-08-04 00:00:00 25.9 4 Noroeste 8 Noroeste 0 -- -- 21
2017-08-03 23:00:00 27.4 3 Sudoeste 10 Noroeste 0 -- -- 18
2017-08-03 22:00:00 29.8 4 Oeste 14 Oeste 0 -- -- 17
2017-08-03 21:00:00 34.1 12 Oeste 24 Noroeste 0 -- -- 13
2017-08-03 20:00:00 35.4 14 Oeste 31 Oeste 0 -- -- 11
2017-08-03 19:00:00 36.2 17 Oeste 29 Oeste 0 -- -- 12
2017-08-03 18:00:00 36.9 15 Oeste 28 Oeste 0 -- -- 11
2017-08-03 17:00:00 36.9 8 Sudoeste 29 Oeste 0 -- -- 11
2017-08-03 16:00:00 36.4 10 Oeste 23 Oeste 0 -- -- 11
2017-08-03 15:00:00 35.5 8 Sudoeste 19 Noroeste 0 -- -- 14
2017-08-03 14:00:00 34.3 5 Norte 21 Sudoeste 0 -- -- 15
2017-08-03 13:00:00 33.1 6 Este 17 Oeste 0 -- -- 16
2017-08-03 12:00:00 31.2 7 Sudoeste 14 Oeste 0 -- -- 20
2017-08-03 11:00:00 29.9 3 Oeste 7 Sudeste 0 -- -- 22
2017-08-03 10:00:00 26.2 3 Oeste 5 Sur 0 -- -- 29
2017-08-03 09:00:00 22.7 3 Sudoeste 5 Oeste 0 -- -- 37
2017-08-03 08:00:00 18.3 0 Calma 5 Norte 0 -- -- 44
2017-08-03 07:00:00 18.6 0 Calma 4 Nordeste 0 -- -- 41
2017-08-03 06:00:00 18.7 0 Calma 3 Norte 0 -- -- 41
2017-08-03 05:00:00 19.8 0 Calma 3 Noroeste 0 -- -- 38
2017-08-03 04:00:00 20.9 0 Calma 5 Noroeste 0 -- -- 35
2017-08-03 03:00:00 22.9 5 Noroeste 10 Noroeste 0 -- -- 31
2017-08-03 02:00:00 24.3 6 Noroeste 13 Noroeste 0 -- -- 29
2017-08-03 01:00:00 25.1 6 Noroeste 17 Noroeste 0 -- -- 28
2017-08-03 00:00:00 27.3 14 Noroeste 22 Noroeste 0 -- -- 25
2017-08-02 23:00:00 27.5 9 Noroeste 14 Noroeste 0 -- -- 22
2017-08-02 22:00:00 29.1 7 Noroeste 22 Oeste 0 -- -- 20
2017-08-02 21:00:00 32.4 14 Oeste 24 Oeste 0 -- -- 17
2017-08-02 20:00:00 34 8 Oeste 25 Oeste 0 -- -- 17
2017-08-02 19:00:00 34.4 6 Oeste 24 Noroeste 0 -- -- 15
2017-08-02 18:00:00 34.5 6 Este 26 Oeste 0 -- -- 16
2017-08-02 17:00:00 34.4 8 Oeste 26 Oeste 0 -- -- 17
2017-08-02 16:00:00 33.9 7 Sudeste 22 Oeste 0 -- -- 17
2017-08-02 15:00:00 33.1 9 Oeste 22 Sudeste 0 -- -- 18
2017-08-02 14:00:00 32.2 8 Sudoeste 17 Oeste 0 -- -- 20
2017-08-02 13:00:00 31.2 6 Sudoeste 18 Oeste 0 -- -- 22
2017-08-02 12:00:00 29.7 9 Sudeste 18 Sudeste 0 -- -- 25
2017-08-02 11:00:00 26.9 5 Oeste 10 Norte 0 -- -- 29
2017-08-02 10:00:00 24.1 3 Sudoeste 6 Oeste 0 -- -- 32
2017-08-02 09:00:00 21.5 0 Calma 4 Sudoeste 0 -- -- 37
2017-08-02 08:00:00 16.7 2 Norte 4 Nordeste 0 -- -- 49
2017-08-02 07:00:00 16.7 5 Nordeste 6 Nordeste 0 -- -- 48
2017-08-02 06:00:00 16.6 0 Calma 2 Noroeste 0 -- -- 50
2017-08-02 05:00:00 17.2 0 Calma 6 Oeste 0 -- -- 48
2017-08-02 04:00:00 17.9 0 Calma 4 Oeste 0 -- -- 48
2017-08-02 03:00:00 18.9 0 Calma 3 Oeste 0 -- -- 46
2017-08-02 02:00:00 20.4 0 Calma 4 Noroeste 0 -- -- 41
2017-08-02 01:00:00 21.7 2 Noroeste 8 Noroeste 0 -- -- 37
2017-08-02 00:00:00 23.6 7 Noroeste 11 Noroeste 0 -- -- 31
2017-08-01 23:00:00 24.7 7 Noroeste 13 Noroeste 0 -- -- 26
2017-08-01 22:00:00 26.6 8 Noroeste 24 Oeste 0 -- -- 23
2017-08-01 21:00:00 29.5 16 Oeste 26 Oeste 0 -- -- 21
2017-08-01 20:00:00 31.2 14 Oeste 23 Oeste 0 -- -- 21
2017-08-01 19:00:00 31.2 10 Noroeste 26 Oeste 0 -- -- 19
2017-08-01 18:00:00 32 10 Oeste 31 Oeste 0 -- -- 17
2017-08-01 17:00:00 31.4 16 Oeste 32 Oeste 0 -- -- 20
2017-08-01 16:00:00 30.8 18 Oeste 33 Oeste 0 -- -- 21
2017-08-01 15:00:00 30.2 12 Noroeste 28 Oeste 0 -- -- 22
2017-08-01 14:00:00 29.2 9 Oeste 24 Oeste 0 -- -- 26
2017-08-01 13:00:00 28.4 9 Noroeste 25 Oeste 0 -- -- 25
2017-08-01 12:00:00 27.7 6 Oeste 13 Oeste 0 -- -- 24
2017-08-01 11:00:00 24.7 9 Oeste 22 Oeste 0 -- -- 36
2017-08-01 10:00:00 22 6 Noroeste 13 Oeste 0 -- -- 42
2017-08-01 09:00:00 20.2 6 Oeste 10 Oeste 0 -- -- 48
2017-08-01 08:00:00 19 2 Sur 12 Oeste 0 -- -- 49
2017-08-01 07:00:00 19.3 5 Oeste 14 Oeste 0 -- -- 47
2017-08-01 06:00:00 19.9 9 Oeste 15 Oeste 0 -- -- 45
2017-08-01 05:00:00 20.4 7 Oeste 17 Oeste 0 -- -- 42
2017-08-01 04:00:00 21 11 Oeste 19 Oeste 0 -- -- 39
2017-08-01 03:00:00 22.1 5 Oeste 16 Oeste 0 -- -- 31
2017-08-01 02:00:00 21.5 2 Sur 8 Sudoeste 0 -- -- 27
2017-08-01 01:00:00 21.7 2 Oeste 10 Noroeste 0 -- -- 26
2017-08-01 00:00:00 22.4 4 Noroeste 8 Oeste 0 -- -- 24
2017-07-31 23:00:00 24.5 4 Noroeste 19 Oeste 0 -- -- 21
2017-07-31 22:00:00 27.4 16 Noroeste 29 Noroeste 0 -- -- 17
2017-07-31 21:00:00 30.4 17 Noroeste 29 Noroeste 0 -- -- 17
2017-07-31 20:00:00 32.1 16 Noroeste 32 Noroeste 0 -- -- 17
2017-07-31 19:00:00 33.3 19 Noroeste 33 Noroeste 0 -- -- 17
2017-07-31 18:00:00 33.4 22 Oeste 37 Oeste 0 -- -- 18
2017-07-31 17:00:00 33.7 13 Oeste 33 Oeste 0 -- -- 19
2017-07-31 16:00:00 33.5 20 Oeste 35 Sudoeste 0 -- -- 18
2017-07-31 15:00:00 32.9 16 Sudoeste 35 Sudoeste 0 -- -- 19
2017-07-31 14:00:00 32.2 16 Sudoeste 33 Sudoeste 0 -- -- 18
2017-07-31 13:00:00 31.8 14 Sudoeste 31 Oeste 0 -- -- 21
2017-07-31 12:00:00 29.6 8 Oeste 16 Oeste 0 -- -- 23
2017-07-31 11:00:00 27 5 Sudoeste 11 Sudoeste 0 -- -- 26
2017-07-31 10:00:00 24.3 3 Sudoeste 8 Oeste 0 -- -- 34
2017-07-31 09:00:00 21.4 5 Oeste 8 Oeste 0 -- -- 41
2017-07-31 08:00:00 17.5 2 Oeste 7 Oeste 0 -- -- 51
2017-07-31 07:00:00 17.5 4 Oeste 5 Oeste 0 -- -- 49
2017-07-31 06:00:00 18.3 3 Oeste 5 Oeste 0 -- -- 45
2017-07-31 05:00:00 20.1 0 Calma 9 Oeste 0 -- -- 39
2017-07-31 04:00:00 21.4 8 Oeste 9 Oeste 0 -- -- 35
2017-07-31 03:00:00 21.2 3 Oeste 6 Oeste 0 -- -- 35
2017-07-31 02:00:00 22.5 2 Sudoeste 6 Oeste 0 -- -- 31
2017-07-31 01:00:00 24.3 3 Oeste 6 Oeste 0 -- -- 28
2017-07-31 00:00:00 25.4 0 Calma 5 Noroeste 0 -- -- 27
2017-07-30 23:00:00 27.5 0 Calma 8 Noroeste 0 -- -- 25
2017-07-30 22:00:00 30.4 5 Noroeste 19 Noroeste 0 -- -- 22
2017-07-30 21:00:00 33.4 15 Noroeste 27 Oeste 0 -- -- 19
2017-07-30 20:00:00 35.3 18 Noroeste 31 Oeste 0 -- -- 18
2017-07-30 19:00:00 36.2 18 Noroeste 43 Oeste 0 -- -- 18
2017-07-30 18:00:00 36.8 22 Oeste 44 Sudoeste 0 -- -- 18
2017-07-30 17:00:00 37.6 19 Oeste 32 Oeste 0 -- -- 17
2017-07-30 16:00:00 37 13 Oeste 31 Oeste 0 -- -- 18
2017-07-30 15:00:00 36 13 Oeste 35 Oeste 0 -- -- 19
2017-07-30 14:00:00 35.6 14 Oeste 28 Oeste 0 -- -- 20
2017-07-30 13:00:00 34.5 6 Oeste 22 Oeste 0 -- -- 22
2017-07-30 12:00:00 32.4 6 Oeste 15 Oeste 0 -- -- 25
2017-07-30 11:00:00 30 5 Oeste 11 Sudoeste 0 -- -- 28
2017-07-30 10:00:00 27.7 7 Oeste 10 Oeste 0 -- -- 32
2017-07-30 09:00:00 25.3 0 Calma 5 Sudeste 0 -- -- 35
2017-07-30 08:00:00 20.7 0 Calma 6 Nordeste 0 -- -- 47
2017-07-30 07:00:00 20.7 0 Calma 8 Sur 0 -- -- 42
2017-07-30 06:00:00 21.2 2 Sur 7 Sur 0 -- -- 41
2017-07-30 05:00:00 22.7 6 Noroeste 10 Noroeste 0 -- -- 37
2017-07-30 04:00:00 21.7 3 Sudeste 4 Sudeste 0 -- -- 42
2017-07-30 03:00:00 23.1 3 Noroeste 5 Norte 0 -- -- 39
2017-07-30 02:00:00 23.8 0 Calma 5 Oeste 0 -- -- 36
2017-07-30 01:00:00 26.1 3 Oeste 11 Noroeste 0 -- -- 32
2017-07-30 00:00:00 26.7 4 Noroeste 8 Noroeste 0 -- -- 27
2017-07-29 23:00:00 27.8 3 Noroeste 6 Noroeste 0 -- -- 22
2017-07-29 22:00:00 29.9 4 Noroeste 16 Oeste 0 -- -- 17
2017-07-29 21:00:00 33.6 11 Oeste 28 Oeste 0 -- -- 13
2017-07-29 20:00:00 34.9 20 Oeste 34 Oeste 0 -- -- 13
2017-07-29 19:00:00 36.2 16 Noroeste 33 Oeste 0 -- -- 17
2017-07-29 18:00:00 36.5 14 Oeste 33 Oeste 0 -- -- 17
2017-07-29 17:00:00 36.2 20 Oeste 37 Oeste 0 -- -- 13
2017-07-29 16:00:00 36.1 18 Oeste 45 Oeste 0 -- -- 13
2017-07-29 15:00:00 35.4 18 Oeste 37 Oeste 0 -- -- 15
2017-07-29 14:00:00 34.9 19 Oeste 35 Oeste 0 -- -- 15
2017-07-29 13:00:00 34.3 21 Oeste 37 Sur 0 -- -- 13
2017-07-29 12:00:00 31.5 9 Oeste 19 Oeste 0 -- -- 21
2017-07-29 11:00:00 28.4 6 Oeste 15 Oeste 0 -- -- 30
2017-07-29 10:00:00 26.1 8 Oeste 14 Oeste 0 -- -- 33
2017-07-29 09:00:00 24.1 0 Calma 2 Oeste 0 -- -- 37
2017-07-29 08:00:00 18.6 0 Calma 3 Norte 0 -- -- 47
2017-07-29 07:00:00 18.6 2 Este 3 Este 0 -- -- 43
2017-07-29 06:00:00 19.5 0 Calma 3 Nordeste 0 -- -- 38
2017-07-29 05:00:00 20 0 Calma 3 Nordeste 0 -- -- 35
2017-07-29 04:00:00 21.4 0 Calma 4 Norte 0 -- -- 31
2017-07-29 03:00:00 23.1 2 Noroeste 12 Noroeste 0 -- -- 26
2017-07-29 02:00:00 22.5 5 Noroeste 6 Oeste 0 -- -- 26
2017-07-29 01:00:00 23.8 0 Calma 6 Norte 0 -- -- 21
2017-07-29 00:00:00 26.2 3 Norte 10 Noroeste 0 -- -- 17
2017-07-28 23:00:00 28.7 7 Noroeste 11 Noroeste 0 -- -- 14
2017-07-28 22:00:00 30.8 8 Noroeste 21 Noroeste 0 -- -- 14
2017-07-28 21:00:00 34 14 Noroeste 30 Noroeste 0 -- -- 13
2017-07-28 20:00:00 35.6 17 Noroeste 36 Oeste 0 -- -- 13
2017-07-28 19:00:00 36.9 22 Noroeste 34 Oeste 0 -- -- 12
2017-07-28 18:00:00 37.6 10 Oeste 35 Oeste 0 -- -- 12
2017-07-28 17:00:00 37.3 17 Noroeste 37 Oeste 0 -- -- 13
2017-07-28 16:00:00 36.7 16 Oeste 36 Oeste 0 -- -- 14
2017-07-28 15:00:00 36 14 Oeste 32 Sudoeste 0 -- -- 16
2017-07-28 14:00:00 35.4 15 Oeste 28 Oeste 0 -- -- 16
2017-07-28 13:00:00 33.8 12 Oeste 23 Oeste 0 -- -- 21
2017-07-28 12:00:00 31.5 8 Oeste 15 Oeste 0 -- -- 23
2017-07-28 11:00:00 28.6 7 Oeste 13 Oeste 0 -- -- 30
2017-07-28 10:00:00 26.2 7 Oeste 10 Oeste 0 -- -- 34
2017-07-28 09:00:00 23.3 2 Noroeste 6 Noroeste 0 -- -- 41
2017-07-28 08:00:00 19.8 2 Oeste 5 Oeste 0 -- -- 47
2017-07-28 07:00:00 19.7 2 Oeste 4 Oeste 0 -- -- 39
2017-07-28 06:00:00 20.1 0 Calma 5 Oeste 0 -- -- 38
2017-07-28 05:00:00 21 0 Calma 3 Noroeste 0 -- -- 37
2017-07-28 04:00:00 22.1 2 Oeste 9 Noroeste 0 -- -- 36
2017-07-28 03:00:00 23.9 3 Noroeste 9 Oeste 0 -- -- 33
2017-07-28 02:00:00 24 3 Noroeste 4 Noroeste 0 -- -- 34
2017-07-28 01:00:00 24.8 2 Noroeste 7 Oeste 0 -- -- 32
2017-07-28 00:00:00 27.4 4 Sur 8 Oeste 0 -- -- 28
2017-07-27 23:00:00 29.5 5 Noroeste 12 Noroeste 0 -- -- 26
2017-07-27 22:00:00 31.7 8 Noroeste 23 Oeste 0 -- -- 22
2017-07-27 21:00:00 34.1 16 Oeste 31 Oeste 0 -- -- 20
2017-07-27 20:00:00 35.8 19 Oeste 32 Oeste 0 -- -- 18
2017-07-27 19:00:00 36.5 17 Oeste 33 Oeste 0 -- -- 16
2017-07-27 18:00:00 36.8 7 Oeste 35 Oeste 0 -- -- 17
2017-07-27 17:00:00 36.8 12 Noroeste 27 Oeste 0 -- -- 16
2017-07-27 16:00:00 36.3 11 Noroeste 30 Noroeste 0 -- -- 17
2017-07-27 15:00:00 36 14 Oeste 46 Oeste 0 -- -- 17
2017-07-27 14:00:00 35.1 8 Oeste 23 Oeste 0 -- -- 20
2017-07-27 13:00:00 34 11 Oeste 21 Oeste 0 -- -- 23
2017-07-27 12:00:00 31.8 8 Oeste 19 Oeste 0 -- -- 27
2017-07-27 11:00:00 29.7 8 Sudoeste 13 Oeste 0 -- -- 33
2017-07-27 10:00:00 27.7 3 Sudoeste 7 Sudoeste 0 -- -- 39
2017-07-27 09:00:00 25.4 0 Calma 3 Noroeste 0 -- -- 44
2017-07-27 08:00:00 19.9 0 Calma 4 Este 0 -- -- 60
2017-07-27 07:00:00 20.5 4 Este 6 Sudeste 0 -- -- 54
2017-07-27 06:00:00 20.1 3 Sudeste 5 Sudeste 0 -- -- 54
2017-07-27 05:00:00 20.9 0 Calma 6 Sudeste 0 -- -- 50
2017-07-27 04:00:00 21.9 3 Este 6 Nordeste 0 -- -- 42
2017-07-27 03:00:00 22.3 4 Este 5 Nordeste 0 -- -- 35
2017-07-27 02:00:00 23.4 3 Este 10 Sur 0 -- -- 32
2017-07-27 01:00:00 26.1 3 Sudeste 15 Nordeste 0 -- -- 27
2017-07-27 00:00:00 26.2 5 Norte 9 Noroeste 0 -- -- 28
2017-07-26 23:00:00 27.6 4 Noroeste 9 Noroeste 0 -- -- 25
2017-07-26 22:00:00 30.4 4 Nordeste 9 Oeste 0 -- -- 23
2017-07-26 21:00:00 34.2 9 Oeste 15 Oeste 0 -- -- 18
2017-07-26 20:00:00 34.3 3 Este 20 Sudoeste 0 -- -- 19
2017-07-26 19:00:00 35.1 4 Sur 17 Noroeste 0 -- -- 19
2017-07-26 18:00:00 35.1 8 Oeste 16 Noroeste 0 -- -- 19
2017-07-26 17:00:00 34.4 8 Sur 26 Este 0 -- -- 19
2017-07-26 16:00:00 33.1 8 Oeste 19 Este 0 -- -- 22
2017-07-26 15:00:00 32.4 8 Nordeste 19 Noroeste 0 -- -- 22
2017-07-26 14:00:00 31.6 8 Nordeste 19 Sudeste 0 -- -- 24
2017-07-26 13:00:00 30.1 10 Este 25 Este 0 -- -- 26
2017-07-26 12:00:00 28.3 14 Este 26 Este 0 -- -- 33
2017-07-26 11:00:00 26.1 12 Este 26 Este 0 -- -- 43
2017-07-26 10:00:00 23.4 14 Este 29 Este 0 -- -- 51
2017-07-26 09:00:00 21.5 17 Este 29 Nordeste 0 -- -- 57
2017-07-26 08:00:00 19.2 14 Este 24 Este 0 -- -- 55
2017-07-26 07:00:00 19.1 0 Calma 15 Nordeste 0 -- -- 42
2017-07-26 06:00:00 20.3 9 Nordeste 28 Nordeste 0 -- -- 35
2017-07-26 05:00:00 21.2 18 Nordeste 24 Nordeste 0 -- -- 32
2017-07-26 04:00:00 21.8 10 Nordeste 24 Nordeste 0 -- -- 28
2017-07-26 03:00:00 22.7 14 Nordeste 24 Nordeste 0 -- -- 27
2017-07-26 02:00:00 23.3 13 Este 19 Este 0 -- -- 27
2017-07-26 01:00:00 24.5 10 Este 17 Nordeste 0 -- -- 26
2017-07-26 00:00:00 25.5 13 Nordeste 15 Este 0 -- -- 25
2017-07-25 23:00:00 27 9 Este 14 Este 0 -- -- 23
2017-07-25 22:00:00 28.7 10 Este 21 Este 0 -- -- 21
2017-07-25 21:00:00 31.2 14 Nordeste 29 Nordeste 0 -- -- 19
2017-07-25 20:00:00 33.3 14 Norte 27 Norte 0 -- -- 20
2017-07-25 19:00:00 34.4 9 Oeste 27 Noroeste 0 -- -- 19
2017-07-25 18:00:00 34.6 17 Noroeste 33 Noroeste 0 -- -- 19
2017-07-25 17:00:00 33.9 12 Oeste 23 Oeste 0 -- -- 20
2017-07-25 16:00:00 32.9 9 Sudoeste 22 Noroeste 0 -- -- 23
2017-07-25 15:00:00 31.9 7 Nordeste 21 Este 0 -- -- 24
2017-07-25 14:00:00 30.9 5 Sur 23 Nordeste 0 -- -- 25
2017-07-25 13:00:00 29.6 9 Este 27 Este 0 -- -- 29
2017-07-25 12:00:00 27.7 14 Nordeste 28 Este 0 -- -- 35
2017-07-25 11:00:00 26 18 Este 32 Nordeste 0 -- -- 40
2017-07-25 10:00:00 24 20 Este 38 Nordeste 0 -- -- 45
2017-07-25 09:00:00 22.3 21 Nordeste 33 Este 0 -- -- 47
2017-07-25 08:00:00 20.6 21 Este 32 Nordeste 0 -- -- 51
2017-07-25 07:00:00 20.7 22 Este 35 Este 0 -- -- 50
2017-07-25 06:00:00 21.6 24 Nordeste 35 Nordeste 0 -- -- 50
2017-07-25 05:00:00 22.7 21 Este 30 Nordeste 0 -- -- 41
2017-07-25 04:00:00 23.6 17 Este 25 Nordeste 0 -- -- 33
2017-07-25 03:00:00 23.8 15 Nordeste 21 Nordeste 0 -- -- 30
2017-07-25 02:00:00 25 14 Nordeste 23 Nordeste 0 -- -- 28
2017-07-25 01:00:00 25.7 12 Nordeste 15 Nordeste 0 -- -- 29
2017-07-25 00:00:00 25.6 9 Este 11 Este 0 -- -- 31
2017-07-24 23:00:00 27.7 6 Norte 12 Norte 0 -- -- 29
2017-07-24 22:00:00 30.1 8 Oeste 22 Oeste 0 -- -- 28
2017-07-24 21:00:00 32.5 13 Oeste 26 Oeste 0 -- -- 22
2017-07-24 20:00:00 33.7 10 Sudoeste 29 Oeste 0 -- -- 20
2017-07-24 19:00:00 34.3 11 Oeste 28 Oeste 0 -- -- 20
2017-07-24 18:00:00 34.4 13 Oeste 30 Oeste 0 -- -- 20
2017-07-24 17:00:00 33.9 9 Noroeste 33 Noroeste 0 -- -- 19
2017-07-24 16:00:00 33.6 11 Oeste 28 Oeste 0 -- -- 22
2017-07-24 15:00:00 33 15 Noroeste 26 Oeste 0 -- -- 22
2017-07-24 14:00:00 31.8 9 Sudoeste 28 Oeste 0 -- -- 24
2017-07-24 13:00:00 30.7 10 Oeste 24 Oeste 0 -- -- 26
2017-07-24 12:00:00 29.1 8 Oeste 15 Oeste 0 -- -- 27
2017-07-24 11:00:00 27.8 5 Sur 12 Sur 0 -- -- 30
2017-07-24 10:00:00 25.6 3 Sudoeste 6 Oeste 0 -- -- 35
2017-07-24 09:00:00 23.5 4 Sudeste 5 Sudeste 0 -- -- 38
2017-07-24 08:00:00 18 0 Calma 8 Nordeste 0 -- -- 53
2017-07-24 07:00:00 18.2 5 Nordeste 7 Nordeste 0 -- -- 49
2017-07-24 06:00:00 18.4 0 Calma 4 Oeste 0 -- -- 48
2017-07-24 05:00:00 19 2 Norte 7 Oeste 0 -- -- 44
2017-07-24 04:00:00 19.2 0 Calma 3 Sudeste 0 -- -- 44
2017-07-24 03:00:00 20.1 0 Calma 3 Noroeste 0 -- -- 41
2017-07-24 02:00:00 21.3 0 Calma 3 Noroeste 0 -- -- 37
2017-07-24 01:00:00 22.9 2 Noroeste 6 Noroeste 0 -- -- 32
2017-07-24 00:00:00 24.7 5 Noroeste 11 Noroeste 0 -- -- 27
2017-07-23 23:00:00 25 4 Noroeste 9 Noroeste 0 -- -- 22
2017-07-23 22:00:00 28.2 4 Oeste 23 Oeste 0 -- -- 17
2017-07-23 21:00:00 31.4 15 Oeste 31 Oeste 0 -- -- 15
2017-07-23 20:00:00 32.8 16 Oeste 36 Sudoeste 0 -- -- 16
2017-07-23 19:00:00 33.7 18 Oeste 35 Oeste 0 -- -- 15
2017-07-23 18:00:00 34.1 17 Oeste 38 Oeste 0 -- -- 16
2017-07-23 17:00:00 34.2 13 Sudoeste 31 Oeste 0 -- -- 16
2017-07-23 16:00:00 33.6 14 Oeste 34 Oeste 0 -- -- 17
2017-07-23 15:00:00 32.9 13 Oeste 31 Oeste 0 -- -- 18
2017-07-23 14:00:00 32.4 8 Sudoeste 24 Oeste 0 -- -- 21
2017-07-23 13:00:00 31.2 12 Oeste 27 Oeste 0 -- -- 20
2017-07-23 12:00:00 29.7 9 Oeste 17 Sudoeste 0 -- -- 22
2017-07-23 11:00:00 27.4 4 Oeste 9 Sudoeste 0 -- -- 25
2017-07-23 10:00:00 24.6 3 Oeste 6 Oeste 0 -- -- 30
2017-07-23 09:00:00 21.8 2 Oeste 5 Oeste 0 -- -- 34
2017-07-23 08:00:00 16.8 0 Calma 6 Nordeste 0 -- -- 46
2017-07-23 07:00:00 16.5 2 Norte 3 Nordeste 0 -- -- 42
2017-07-23 06:00:00 17.9 0 Calma 6 Nordeste 0 -- -- 37
2017-07-23 05:00:00 18.9 3 Nordeste 4 Noroeste 0 -- -- 33
2017-07-23 04:00:00 19.3 5 Noroeste 8 Oeste 0 -- -- 32
2017-07-23 03:00:00 19.1 2 Nordeste 4 Oeste 0 -- -- 35
2017-07-23 02:00:00 20 2 Oeste 4 Sudoeste 0 -- -- 31
2017-07-23 01:00:00 21.8 0 Calma 9 Noroeste 0 -- -- 25
2017-07-23 00:00:00 25.3 8 Norte 13 Norte 0 -- -- 21